Nortern Enterprice — UFIK — position and weather

sailwx.info

Track history (hours):
 
Tides and Currents Weather Stations Pressure Air Temp Water Temp Dewpoint Dewpoint Depression Visibility Wind Speed Wind Dir Waves Ship Positions

Nortern Enterprice

Last reported at 2018-Mar-17 19:02 UTC. Time now 2018-Jun-22 01:58 UTC.
Position N 70°10' E 032°01'.
Warning: this ship's position is months out of date.

Length 52 m; draft 3.4 m.

Type: Fishing. MMSI: 273853400.

Date/timePositionNaut miles runAvg speedWind from/ knotsBaromVisibWave heightAir tempDewpointWater temp
2018-Mar-17 19:02N 70°10' E 032°01'0 8.5
2018-Mar-17 19:00N 70°10' E 032°00'3 6.2
2018-Mar-17 18:30N 70°10' E 031°51'4 7.3
2018-Mar-17 18:00N 70°09' E 031°41'4 8.3
2018-Mar-17 17:29N 70°08' E 031°29'5 9.1
2018-Mar-17 16:59N 70°06' E 031°16'4 9.3
2018-Mar-17 16:30N 70°04' E 031°04'5 9.1
2018-Mar-17 15:59N 70°02' E 030°52'5 9.2
2018-Mar-17 15:30N 69°60' E 030°41'5 9.4
2018-Mar-17 14:59N 69°57' E 030°28'5 9.4
2018-Mar-17 14:30N 69°55' E 030°17'5 9.3
2018-Mar-17 14:00N 69°52' E 030°07'5 9.3
2018-Mar-17 13:29N 69°47' E 030°06'3 6.6
2018-Mar-17 13:00N 69°44' E 030°05'0 0.0
2018-Mar-17 12:30N 69°44' E 030°05'0 0.0
2018-Mar-17 12:01N 69°44' E 030°05'0 0.0
2018-Mar-17 11:29N 69°44' E 030°05'0 0.0
2018-Mar-17 11:00N 69°44' E 030°05'0 0.0
2018-Mar-17 10:30N 69°44' E 030°05'0 0.0
2018-Mar-17 10:00N 69°44' E 030°05'0 0.0
2018-Mar-17 09:30N 69°44' E 030°05'0 0.0
2018-Mar-17 09:01N 69°44' E 030°05'0 0.0
2018-Mar-17 08:30N 69°44' E 030°05'0 0.0
2018-Mar-17 08:00N 69°44' E 030°05'0 0.5
2018-Mar-17 07:30N 69°44' E 030°04'3 5.5
2018-Mar-17 07:00N 69°47' E 030°05'1 1.7
2018-Mar-17 06:30N 69°46' E 030°06'2 4.5
2018-Mar-17 06:00N 69°44' E 030°03'0 0.0
2018-Mar-17 05:30N 69°44' E 030°03'0 0.0
2018-Mar-17 05:00N 69°44' E 030°03'0 0.0
2018-Mar-17 04:30N 69°44' E 030°03'0 0.0
2018-Mar-17 04:01N 69°44' E 030°03'0 0.0
2018-Mar-17 03:29N 69°44' E 030°03'0 0.0
2018-Mar-17 03:00N 69°44' E 030°03'0 0.0
2018-Mar-17 02:30N 69°44' E 030°03'0 0.0
2018-Mar-17 02:00N 69°44' E 030°03'0 0.0
2018-Mar-17 01:30N 69°44' E 030°03'0 0.0
2018-Mar-17 01:00N 69°44' E 030°03'0 0.0
2018-Mar-17 00:30N 69°44' E 030°03'0 0.0
2018-Mar-17 00:00N 69°44' E 030°03'0 0.0
2018-Mar-16 23:30N 69°44' E 030°03'0 0.0
2018-Mar-16 23:01N 69°44' E 030°03'0 0.0
2018-Mar-16 22:30N 69°44' E 030°03'0 0.0
2018-Mar-16 22:00N 69°44' E 030°03'0 0.0
2018-Mar-16 21:30N 69°44' E 030°03'0 0.0
2018-Mar-16 21:00N 69°44' E 030°03'0 0.0
2018-Mar-16 20:30N 69°44' E 030°03'0 0.0
2018-Mar-16 20:00N 69°44' E 030°03'0 0.0
2018-Mar-16 19:31N 69°44' E 030°03'0 0.0
2018-Mar-16 19:00N 69°44' E 030°03'0 0.0
2018-Mar-16 18:31N 69°44' E 030°03'0 0.0
2018-Mar-16 17:59N 69°44' E 030°03'0 0.0
2018-Mar-16 17:30N 69°44' E 030°03'0 0.0
2018-Mar-16 17:00N 69°44' E 030°03'0 0.0
2018-Mar-16 16:30N 69°44' E 030°03'0 0.0
2018-Mar-16 16:00N 69°44' E 030°03'0 0.0
2018-Mar-16 15:31N 69°44' E 030°03'0 0.0
2018-Mar-16 15:00N 69°44' E 030°03'0 0.0
2018-Mar-16 14:30N 69°44' E 030°03'0 0.0
2018-Mar-16 14:00N 69°44' E 030°03'0 0.0
2018-Mar-16 13:30N 69°44' E 030°03'0 0.0
2018-Mar-16 13:00N 69°44' E 030°03'0 0.0
2018-Mar-16 12:30N 69°44' E 030°03'0 0.0
2018-Mar-16 12:00N 69°44' E 030°03'0 0.0
2018-Mar-16 11:30N 69°44' E 030°03'0 0.0
2018-Mar-16 11:01N 69°44' E 030°03'0 0.0
2018-Mar-16 10:30N 69°44' E 030°03'0 0.0
2018-Mar-16 10:00N 69°44' E 030°03'0 0.0
2018-Mar-16 09:31N 69°44' E 030°03'0 0.0
2018-Mar-16 09:00N 69°44' E 030°03'0 0.0
2018-Mar-16 08:30N 69°44' E 030°03'0 0.0
2018-Mar-16 07:59N 69°44' E 030°03'0 0.0
2018-Mar-16 07:30N 69°44' E 030°03'0 0.0
2018-Mar-16 06:59N 69°44' E 030°03'0 0.0
2018-Mar-16 06:31N 69°44' E 030°03'0 0.0
2018-Mar-16 06:01N 69°44' E 030°03'0 0.0
2018-Mar-16 05:28N 69°44' E 030°03'0 0.6
2018-Mar-16 05:00N 69°44' E 030°04'4 6.8
2018-Mar-16 04:29N 69°48' E 030°05'5 9.3
2018-Mar-16 03:59N 69°52' E 030°07'4 9.1
2018-Mar-16 03:30N 69°55' E 030°17'5 9.4
2018-Mar-16 03:01N 69°57' E 030°29'5 9.5
2018-Mar-16 02:30N 69°60' E 030°41'5 9.7
2018-Mar-16 02:00N 70°02' E 030°54'4 9.0
2018-Mar-16 01:30N 70°04' E 031°06'4 8.2
2018-Mar-16 01:00N 70°06' E 031°16'3 7.0
2018-Mar-16 00:30N 70°07' E 031°26'3 6.8
2018-Mar-16 00:00N 70°08' E 031°35'3 5.9
2018-Mar-15 23:30N 70°09' E 031°43'3 5.7
2018-Mar-15 23:00N 70°10' E 031°52'2 4.6
2018-Mar-15 22:30N 70°10' E 031°58'  
2018-Mar-07 22:00N 70°10' E 031°59'2 3.9
2018-Mar-07 21:30N 70°10' E 031°53'3 5.4
2018-Mar-07 21:00N 70°09' E 031°46'3 5.7
2018-Mar-07 20:30N 70°09' E 031°38'3 5.8
2018-Mar-07 20:00N 70°08' E 031°29'4 7.8
2018-Mar-07 19:30N 70°06' E 031°19'  
Track history (hours):
 
Tides and Currents Weather Stations Pressure Air Temp Water Temp Dewpoint Dewpoint Depression Visibility Wind Speed Wind Dir Waves Ship Positions

Nortern Enterprice

Last reported at 2018-Mar-17 19:02 UTC. Time now 2018-Jun-22 01:58 UTC.
Position N 70°10' E 032°01'.
Warning: this ship's position is months out of date.

Length 52 m; draft 3.4 m.

Type: Fishing. MMSI: 273853400.

Date/timePositionNaut miles runAvg speedWind from/ knotsBaromVisibWave heightAir tempDewpointWater temp
2018-Mar-17 19:02N 70°10' E 032°01'0 8.5
2018-Mar-17 19:00N 70°10' E 032°00'3 6.2
2018-Mar-17 18:30N 70°10' E 031°51'4 7.3
2018-Mar-17 18:00N 70°09' E 031°41'4 8.3
2018-Mar-17 17:29N 70°08' E 031°29'5 9.1
2018-Mar-17 16:59N 70°06' E 031°16'4 9.3
2018-Mar-17 16:30N 70°04' E 031°04'5 9.1
2018-Mar-17 15:59N 70°02' E 030°52'5 9.2
2018-Mar-17 15:30N 69°60' E 030°41'5 9.4
2018-Mar-17 14:59N 69°57' E 030°28'5 9.4
2018-Mar-17 14:30N 69°55' E 030°17'5 9.3
2018-Mar-17 14:00N 69°52' E 030°07'5 9.3
2018-Mar-17 13:29N 69°47' E 030°06'3 6.6
2018-Mar-17 13:00N 69°44' E 030°05'0 0.0
2018-Mar-17 12:30N 69°44' E 030°05'0 0.0
2018-Mar-17 12:01N 69°44' E 030°05'0 0.0
2018-Mar-17 11:29N 69°44' E 030°05'0 0.0
2018-Mar-17 11:00N 69°44' E 030°05'0 0.0
2018-Mar-17 10:30N 69°44' E 030°05'0 0.0
2018-Mar-17 10:00N 69°44' E 030°05'0 0.0
2018-Mar-17 09:30N 69°44' E 030°05'0 0.0
2018-Mar-17 09:01N 69°44' E 030°05'0 0.0
2018-Mar-17 08:30N 69°44' E 030°05'0 0.0
2018-Mar-17 08:00N 69°44' E 030°05'0 0.5
2018-Mar-17 07:30N 69°44' E 030°04'3 5.5
2018-Mar-17 07:00N 69°47' E 030°05'1 1.7
2018-Mar-17 06:30N 69°46' E 030°06'2 4.5
2018-Mar-17 06:00N 69°44' E 030°03'0 0.0
2018-Mar-17 05:30N 69°44' E 030°03'0 0.0
2018-Mar-17 05:00N 69°44' E 030°03'0 0.0
2018-Mar-17 04:30N 69°44' E 030°03'0 0.0
2018-Mar-17 04:01N 69°44' E 030°03'0 0.0
2018-Mar-17 03:29N 69°44' E 030°03'0 0.0
2018-Mar-17 03:00N 69°44' E 030°03'0 0.0
2018-Mar-17 02:30N 69°44' E 030°03'0 0.0
2018-Mar-17 02:00N 69°44' E 030°03'0 0.0
2018-Mar-17 01:30N 69°44' E 030°03'0 0.0
2018-Mar-17 01:00N 69°44' E 030°03'0 0.0
2018-Mar-17 00:30N 69°44' E 030°03'0 0.0
2018-Mar-17 00:00N 69°44' E 030°03'0 0.0
2018-Mar-16 23:30N 69°44' E 030°03'0 0.0
2018-Mar-16 23:01N 69°44' E 030°03'0 0.0
2018-Mar-16 22:30N 69°44' E 030°03'0 0.0
2018-Mar-16 22:00N 69°44' E 030°03'0 0.0
2018-Mar-16 21:30N 69°44' E 030°03'0 0.0
2018-Mar-16 21:00N 69°44' E 030°03'0 0.0
2018-Mar-16 20:30N 69°44' E 030°03'0 0.0
2018-Mar-16 20:00N 69°44' E 030°03'0 0.0
2018-Mar-16 19:31N 69°44' E 030°03'0 0.0
2018-Mar-16 19:00N 69°44' E 030°03'0 0.0
2018-Mar-16 18:31N 69°44' E 030°03'0 0.0
2018-Mar-16 17:59N 69°44' E 030°03'0 0.0
2018-Mar-16 17:30N 69°44' E 030°03'0 0.0
2018-Mar-16 17:00N 69°44' E 030°03'0 0.0
2018-Mar-16 16:30N 69°44' E 030°03'0 0.0
2018-Mar-16 16:00N 69°44' E 030°03'0 0.0
2018-Mar-16 15:31N 69°44' E 030°03'0 0.0
2018-Mar-16 15:00N 69°44' E 030°03'0 0.0
2018-Mar-16 14:30N 69°44' E 030°03'0 0.0
2018-Mar-16 14:00N 69°44' E 030°03'0 0.0
2018-Mar-16 13:30N 69°44' E 030°03'0 0.0
2018-Mar-16 13:00N 69°44' E 030°03'0 0.0
2018-Mar-16 12:30N 69°44' E 030°03'0 0.0
2018-Mar-16 12:00N 69°44' E 030°03'0 0.0
2018-Mar-16 11:30N 69°44' E 030°03'0 0.0
2018-Mar-16 11:01N 69°44' E 030°03'0 0.0
2018-Mar-16 10:30N 69°44' E 030°03'0 0.0
2018-Mar-16 10:00N 69°44' E 030°03'0 0.0
2018-Mar-16 09:31N 69°44' E 030°03'0 0.0
2018-Mar-16 09:00N 69°44' E 030°03'0 0.0
2018-Mar-16 08:30N 69°44' E 030°03'0 0.0
2018-Mar-16 07:59N 69°44' E 030°03'0 0.0
2018-Mar-16 07:30N 69°44' E 030°03'0 0.0
2018-Mar-16 06:59N 69°44' E 030°03'0 0.0
2018-Mar-16 06:31N 69°44' E 030°03'0 0.0
2018-Mar-16 06:01N 69°44' E 030°03'0 0.0
2018-Mar-16 05:28N 69°44' E 030°03'0 0.6
2018-Mar-16 05:00N 69°44' E 030°04'4 6.8
2018-Mar-16 04:29N 69°48' E 030°05'5 9.3
2018-Mar-16 03:59N 69°52' E 030°07'4 9.1
2018-Mar-16 03:30N 69°55' E 030°17'5 9.4
2018-Mar-16 03:01N 69°57' E 030°29'5 9.5
2018-Mar-16 02:30N 69°60' E 030°41'5 9.7
2018-Mar-16 02:00N 70°02' E 030°54'4 9.0
2018-Mar-16 01:30N 70°04' E 031°06'4 8.2
2018-Mar-16 01:00N 70°06' E 031°16'3 7.0
2018-Mar-16 00:30N 70°07' E 031°26'3 6.8
2018-Mar-16 00:00N 70°08' E 031°35'3 5.9
2018-Mar-15 23:30N 70°09' E 031°43'3 5.7
2018-Mar-15 23:00N 70°10' E 031°52'2 4.6
2018-Mar-15 22:30N 70°10' E 031°58'  
2018-Mar-07 22:00N 70°10' E 031°59'2 3.9
2018-Mar-07 21:30N 70°10' E 031°53'3 5.4
2018-Mar-07 21:00N 70°09' E 031°46'3 5.7
2018-Mar-07 20:30N 70°09' E 031°38'3 5.8
2018-Mar-07 20:00N 70°08' E 031°29'4 7.8
2018-Mar-07 19:30N 70°06' E 031°19'  

Dump ship's entire track history